createdAt,value
2022-11-20T00:01:27.899Z,8.27
2022-11-20T00:04:00.427Z,7.20
2022-11-20T00:06:30.220Z,7.40
2022-11-20T00:08:58.515Z,6.90
2022-11-20T00:11:27.262Z,7.03
2022-11-20T00:13:56.378Z,7.03
2022-11-20T00:16:25.314Z,6.95
2022-11-20T00:18:55.727Z,7.78
2022-11-20T00:21:27.463Z,8.10
2022-11-20T00:23:59.351Z,7.38
2022-11-20T00:26:29.852Z,7.63
2022-11-20T00:28:59.474Z,7.07
2022-11-20T00:31:29.160Z,7.03
2022-11-20T00:33:58.450Z,6.65
2022-11-20T00:36:27.137Z,5.82
2022-11-20T00:38:55.660Z,5.65
2022-11-20T00:43:51.206Z,4.80
2022-11-20T00:46:20.072Z,5.38
2022-11-20T00:48:49.505Z,5.75
2022-11-20T00:51:19.498Z,6.13
2022-11-20T00:53:47.025Z,6.03
2022-11-20T00:56:16.659Z,6.40
2022-11-20T00:58:47.665Z,6.05
2022-11-20T01:01:19.929Z,5.40
2022-11-20T01:03:51.555Z,5.68
2022-11-20T01:06:24.737Z,6.38
2022-11-20T01:08:53.761Z,5.68
2022-11-20T01:11:32.678Z,6.25
2022-11-20T01:14:00.364Z,5.93
2022-11-20T01:16:30.408Z,5.03
2022-11-20T01:18:59.018Z,6.03
2022-11-20T01:21:37.180Z,5.47
2022-11-20T01:24:08.886Z,5.70
2022-11-20T01:26:38.068Z,5.55
2022-11-20T01:29:06.275Z,6.07
2022-11-20T01:31:35.340Z,5.72
2022-11-20T01:34:07.391Z,5.28
2022-11-20T01:36:36.683Z,5.80
2022-11-20T01:39:13.350Z,6.00
2022-11-20T01:41:58.624Z,6.07
2022-11-20T01:44:56.847Z,5.72
2022-11-20T01:50:17.435Z,4.57
2022-11-20T01:52:46.443Z,5.28
2022-11-20T01:55:18.506Z,5.50
2022-11-20T01:57:46.659Z,5.28
2022-11-20T02:00:19.034Z,5.50
2022-11-20T02:02:54.645Z,5.18
2022-11-20T02:05:21.231Z,5.40
2022-11-20T02:07:48.148Z,5.57
2022-11-20T02:10:16.000Z,5.38
2022-11-20T02:13:01.113Z,6.32
2022-11-20T02:15:30.446Z,5.22
2022-11-20T02:17:57.496Z,5.97
2022-11-20T02:20:24.426Z,6.30
2022-11-20T02:23:09.706Z,5.75
2022-11-20T02:25:38.224Z,6.28
2022-11-20T02:30:31.938Z,5.95
2022-11-20T02:33:00.489Z,5.88
2022-11-20T02:37:56.910Z,4.65
2022-11-20T02:40:24.326Z,5.40
2022-11-20T02:42:54.952Z,4.70
2022-11-20T02:45:22.006Z,5.50
2022-11-20T02:47:53.255Z,6.15
2022-11-20T02:50:19.978Z,6.35
2022-11-20T02:52:48.379Z,5.47
2022-11-20T02:55:15.050Z,5.25
2022-11-20T02:57:41.583Z,5.10
2022-11-20T03:00:11.876Z,5.78
2022-11-20T03:02:38.468Z,5.18
2022-11-20T03:05:05.281Z,5.07
2022-11-20T03:07:31.898Z,5.97
2022-11-20T03:09:58.490Z,6.07
2022-11-20T03:12:26.582Z,5.18
2022-11-20T03:14:56.344Z,6.03
2022-11-20T03:17:25.148Z,5.75
2022-11-20T03:19:53.918Z,5.97
2022-11-20T03:22:20.486Z,5.65
2022-11-20T03:24:47.429Z,5.85
2022-11-20T03:27:14.044Z,5.05
2022-11-20T03:29:40.826Z,5.18
2022-11-20T03:32:07.813Z,5.18
2022-11-20T03:34:36.630Z,5.20
2022-11-20T03:37:03.230Z,4.78
2022-11-20T03:39:32.181Z,4.70
2022-11-20T03:41:58.757Z,6.60
2022-11-20T03:44:25.336Z,5.28
2022-11-20T03:46:52.320Z,5.13
2022-11-20T03:49:19.717Z,5.63
2022-11-20T03:51:50.899Z,4.90
2022-11-20T03:54:18.302Z,6.05
2022-11-20T03:56:45.145Z,5.55
2022-11-20T03:59:14.957Z,5.85
2022-11-20T04:01:44.326Z,5.00
2022-11-20T04:04:13.717Z,5.35
2022-11-20T04:06:41.008Z,5.35
2022-11-20T04:09:07.915Z,5.15
2022-11-20T04:11:37.711Z,4.78
2022-11-20T04:14:07.197Z,5.72
2022-11-20T04:16:36.189Z,5.35
2022-11-20T04:19:05.440Z,5.05
2022-11-20T04:21:32.047Z,3.72
2022-11-20T04:23:59.310Z,5.18
2022-11-20T04:26:28.032Z,5.60
2022-11-20T04:28:55.145Z,5.53
2022-11-20T04:31:24.938Z,5.60
2022-11-20T04:33:51.949Z,6.05
2022-11-20T04:36:23.271Z,5.25
2022-11-20T04:38:56.965Z,5.75
2022-11-20T04:41:26.883Z,5.47
2022-11-20T04:44:05.844Z,5.07
2022-11-20T04:46:40.717Z,3.65
2022-11-20T04:49:10.554Z,3.20
2022-11-20T04:51:39.544Z,4.53
2022-11-20T04:54:06.894Z,5.07
2022-11-20T04:56:35.763Z,5.05
2022-11-20T04:59:03.036Z,4.35
2022-11-20T05:01:33.551Z,5.30
2022-11-20T05:04:00.657Z,5.30
2022-11-20T05:06:30.762Z,5.28
2022-11-20T05:08:57.280Z,5.63
2022-11-20T05:11:24.165Z,5.05
2022-11-20T05:13:52.855Z,5.15
2022-11-20T05:16:24.947Z,6.13
2022-11-20T05:18:54.008Z,5.45
2022-11-20T05:21:21.209Z,4.80
2022-11-20T05:23:48.406Z,4.93
2022-11-20T05:26:19.304Z,5.80
2022-11-20T05:28:49.224Z,5.47
2022-11-20T05:31:26.254Z,4.80
2022-11-20T05:33:57.715Z,5.07
2022-11-20T05:36:24.637Z,5.57
2022-11-20T05:38:52.923Z,4.95
2022-11-20T05:41:23.556Z,4.80
2022-11-20T05:43:52.188Z,6.47
2022-11-20T05:48:55.013Z,5.88
2022-11-20T05:51:21.573Z,5.38
2022-11-20T05:53:48.888Z,5.22
2022-11-20T05:56:21.007Z,6.00
2022-11-20T05:58:48.232Z,5.22
2022-11-20T06:01:16.740Z,5.43
2022-11-20T06:06:15.078Z,4.65
2022-11-20T06:08:42.169Z,5.25
2022-11-20T06:11:11.085Z,5.32
2022-11-20T06:13:41.840Z,5.35
2022-11-20T06:16:09.501Z,6.65
2022-11-20T06:18:36.067Z,6.43
2022-11-20T06:21:07.574Z,7.05
2022-11-20T06:23:35.612Z,6.72
2022-11-20T06:26:04.018Z,6.82
2022-11-20T06:28:31.305Z,5.78
2022-11-20T06:30:58.447Z,5.53
2022-11-20T06:33:25.516Z,4.53
2022-11-20T06:35:58.422Z,5.28
2022-11-20T06:38:27.773Z,5.13
2022-11-20T06:40:55.072Z,4.80
2022-11-20T06:43:22.528Z,5.25
2022-11-20T06:45:56.260Z,5.18
2022-11-20T06:48:24.669Z,5.13
2022-11-20T06:50:51.553Z,4.97
2022-11-20T06:53:18.120Z,5.38
2022-11-20T06:55:48.853Z,4.30
2022-11-20T06:58:16.688Z,5.20
2022-11-20T07:00:44.097Z,5.28
2022-11-20T07:03:12.765Z,5.70
2022-11-20T07:05:42.659Z,5.25
2022-11-20T07:08:09.645Z,4.97
2022-11-20T07:10:39.198Z,5.78
2022-11-20T07:13:07.925Z,4.93
2022-11-20T07:15:34.463Z,5.22
2022-11-20T07:18:06.192Z,5.93
2022-11-20T07:20:32.743Z,10.48
2022-11-20T07:22:59.802Z,8.40
2022-11-20T07:25:29.720Z,7.38
2022-11-20T07:28:00.575Z,7.65
2022-11-20T07:30:28.774Z,7.72
2022-11-20T07:32:56.961Z,6.50
2022-11-20T07:35:24.964Z,6.53
2022-11-20T07:37:52.001Z,7.10
2022-11-20T07:40:19.025Z,6.43
2022-11-20T07:42:53.090Z,5.85
2022-11-20T07:45:22.341Z,5.50
2022-11-20T07:47:49.310Z,6.32
2022-11-20T07:50:17.153Z,5.60
2022-11-20T07:52:43.829Z,6.53
2022-11-20T07:55:13.099Z,6.43
2022-11-20T07:57:40.158Z,7.50
2022-11-20T08:00:11.997Z,7.35
2022-11-20T08:02:41.842Z,7.72
2022-11-20T08:05:10.075Z,8.15
2022-11-20T08:07:41.455Z,7.50
2022-11-20T08:10:09.984Z,7.68
2022-11-20T08:12:55.351Z,7.55
2022-11-20T08:15:21.979Z,7.72
2022-11-20T08:18:15.531Z,7.75
2022-11-20T08:20:42.364Z,7.95
2022-11-20T08:23:09.171Z,7.95
2022-11-20T08:25:37.921Z,7.18
2022-11-20T08:28:19.926Z,7.30
2022-11-20T08:30:51.188Z,7.57
2022-11-20T08:33:19.317Z,7.15
2022-11-20T08:35:48.172Z,7.38
2022-11-20T08:38:14.880Z,5.55
2022-11-20T08:41:04.069Z,6.60
2022-11-20T08:43:30.664Z,6.50
2022-11-20T08:45:59.334Z,7.10
2022-11-20T08:48:26.388Z,7.15
2022-11-20T08:50:53.019Z,7.53
2022-11-20T08:53:19.518Z,7.35
2022-11-20T08:55:48.942Z,6.18
2022-11-20T08:58:15.942Z,6.47
2022-11-20T09:00:42.808Z,7.07
2022-11-20T09:03:10.107Z,7.28
2022-11-20T09:05:38.880Z,7.50
2022-11-20T09:08:06.323Z,7.28
2022-11-20T09:10:33.388Z,5.53
2022-11-20T09:13:00.016Z,6.97
2022-11-20T09:15:29.434Z,6.35
2022-11-20T09:18:00.134Z,6.78
2022-11-20T09:20:28.181Z,3.92
2022-11-20T09:22:54.744Z,8.45
2022-11-20T09:25:22.116Z,5.55
2022-11-20T09:27:48.670Z,7.70
2022-11-20T09:30:16.291Z,6.70
2022-11-20T09:32:44.217Z,5.77
2022-11-20T09:35:11.617Z,6.97
2022-11-20T09:37:39.401Z,7.32
2022-11-20T09:40:06.622Z,7.53
2022-11-20T09:42:45.439Z,7.00
2022-11-20T09:45:36.149Z,6.80
2022-11-20T09:48:05.725Z,7.43
2022-11-20T09:50:49.051Z,6.85
2022-11-20T09:53:42.059Z,6.63
2022-11-20T09:56:11.970Z,6.20
2022-11-20T09:58:48.322Z,6.50
2022-11-20T10:01:24.567Z,8.93
2022-11-20T10:04:20.978Z,6.43
2022-11-20T10:07:32.020Z,8.15
2022-11-20T10:10:01.070Z,6.90
2022-11-20T10:12:56.765Z,8.45
2022-11-20T10:15:42.382Z,7.70
2022-11-20T10:18:30.184Z,5.72
2022-11-20T10:21:22.230Z,6.93
2022-11-20T10:24:00.398Z,7.03
2022-11-20T10:26:44.091Z,7.85
2022-11-20T10:29:14.938Z,5.00
2022-11-20T10:31:46.818Z,9.18
2022-11-20T10:34:38.648Z,6.93
2022-11-20T10:37:18.729Z,8.60
2022-11-20T10:40:19.061Z,8.05
2022-11-20T10:42:51.871Z,8.10
2022-11-20T10:45:30.322Z,8.45
2022-11-20T10:50:31.942Z,7.65
2022-11-20T10:53:42.992Z,8.15
2022-11-20T10:56:18.598Z,7.63
2022-11-20T10:58:47.675Z,8.38
2022-11-20T11:01:28.094Z,9.27
2022-11-20T11:03:56.983Z,8.00
2022-11-20T11:06:34.197Z,9.38
2022-11-20T11:09:11.924Z,8.60
2022-11-20T11:11:42.586Z,8.20
2022-11-20T11:14:16.225Z,8.93
2022-11-20T11:17:06.060Z,9.95
2022-11-20T11:19:36.994Z,9.25
2022-11-20T11:22:18.122Z,9.90
2022-11-20T11:24:54.909Z,9.32
2022-11-20T11:27:24.128Z,10.60
2022-11-20T11:29:51.080Z,11.10
2022-11-20T11:32:22.850Z,11.18
2022-11-20T11:35:04.880Z,9.98
2022-11-20T11:37:39.751Z,10.43
2022-11-20T11:40:27.783Z,7.95
2022-11-20T11:42:59.606Z,8.98
2022-11-20T11:45:29.396Z,10.35
2022-11-20T11:48:00.099Z,11.13
2022-11-20T11:50:28.665Z,10.25
2022-11-20T11:53:10.065Z,11.00
2022-11-20T11:55:39.484Z,10.05
2022-11-20T11:58:32.468Z,12.00
2022-11-20T12:01:09.452Z,11.63
2022-11-20T12:03:44.296Z,10.60
2022-11-20T12:06:18.184Z,10.45
2022-11-20T12:09:00.256Z,9.75
2022-11-20T12:11:47.065Z,9.50
2022-11-20T12:14:25.614Z,7.55
2022-11-20T12:16:54.060Z,10.93
2022-11-20T12:19:23.523Z,10.50
2022-11-20T12:22:23.173Z,11.77
2022-11-20T12:25:21.728Z,9.88
2022-11-20T12:28:10.277Z,11.75
2022-11-20T12:30:50.318Z,7.57
2022-11-20T12:33:30.468Z,11.48
2022-11-20T12:36:18.557Z,10.50
2022-11-20T12:39:10.029Z,9.32
2022-11-20T12:42:28.516Z,9.15
2022-11-20T12:45:30.294Z,11.55
2022-11-20T12:48:15.637Z,9.77
2022-11-20T12:51:17.386Z,9.98
2022-11-20T12:54:01.777Z,10.00
2022-11-20T12:56:51.338Z,7.80
2022-11-20T12:59:53.752Z,11.27
2022-11-20T13:02:31.370Z,10.05
2022-11-20T13:05:17.183Z,11.43
2022-11-20T13:07:44.548Z,10.93
2022-11-20T13:10:27.327Z,7.38
2022-11-20T13:13:01.566Z,10.65
2022-11-20T13:15:53.582Z,11.25
2022-11-20T13:18:20.790Z,8.43
2022-11-20T13:20:49.213Z,8.25
2022-11-20T13:26:15.396Z,8.35
2022-11-20T13:28:42.137Z,8.32
2022-11-20T13:31:36.265Z,7.88
2022-11-20T13:34:49.256Z,7.57
2022-11-20T13:37:39.276Z,10.55
2022-11-20T13:40:17.205Z,7.50
2022-11-20T13:42:44.066Z,10.55
2022-11-20T13:45:23.987Z,6.35
2022-11-20T13:47:55.140Z,7.55
2022-11-20T13:50:51.337Z,11.82
2022-11-20T13:53:39.837Z,10.45
2022-11-20T13:56:19.285Z,10.73
2022-11-20T13:59:04.908Z,7.60
2022-11-20T14:01:33.768Z,11.18
2022-11-20T14:06:44.149Z,8.75
2022-11-20T14:09:26.114Z,7.72
2022-11-20T14:11:55.106Z,5.80
2022-11-20T14:14:26.820Z,11.68
2022-11-20T14:17:05.599Z,10.32
2022-11-20T14:19:32.711Z,9.18
2022-11-20T14:22:27.217Z,8.05
2022-11-20T14:25:02.896Z,10.88
2022-11-20T14:27:34.346Z,8.48
2022-11-20T14:30:03.027Z,9.40
2022-11-20T14:32:31.966Z,9.35
2022-11-20T14:35:09.602Z,11.75
2022-11-20T14:37:39.505Z,12.18
2022-11-20T14:40:24.129Z,10.57
2022-11-20T14:42:50.801Z,9.52
2022-11-20T14:45:18.144Z,10.88
2022-11-20T14:47:46.217Z,10.55
2022-11-20T14:50:30.088Z,10.60
2022-11-20T14:53:01.627Z,10.52
2022-11-20T14:55:33.790Z,10.43
2022-11-20T14:58:05.574Z,10.68
2022-11-20T15:00:34.413Z,10.93
2022-11-20T15:03:01.026Z,12.10
2022-11-20T15:05:47.298Z,12.18
2022-11-20T15:08:14.984Z,12.55
2022-11-20T15:10:56.657Z,11.05
2022-11-20T15:13:39.464Z,11.02
2022-11-20T15:16:21.868Z,10.95
2022-11-20T15:18:49.330Z,9.25
2022-11-20T15:21:20.588Z,10.50
2022-11-20T15:23:48.343Z,12.40
2022-11-20T15:26:23.354Z,11.50
2022-11-20T15:28:53.130Z,11.25
2022-11-20T15:31:23.152Z,11.02
2022-11-20T15:33:50.526Z,12.05
2022-11-20T15:36:18.051Z,10.75
2022-11-20T15:38:45.242Z,12.07
2022-11-20T15:41:12.702Z,10.68
2022-11-20T15:43:39.766Z,12.82
2022-11-20T15:46:12.293Z,12.13
2022-11-20T15:48:48.951Z,12.23
2022-11-20T15:51:32.416Z,11.32
2022-11-20T15:53:59.610Z,11.93
2022-11-20T15:56:27.584Z,11.32
2022-11-20T15:58:54.786Z,12.23
2022-11-20T16:01:24.905Z,10.82
2022-11-20T16:03:51.813Z,11.40
2022-11-20T16:06:19.587Z,12.20
2022-11-20T16:08:46.530Z,10.90
2022-11-20T16:11:18.324Z,12.68
2022-11-20T16:14:03.503Z,10.65
2022-11-20T16:16:33.674Z,10.93
2022-11-20T16:19:01.550Z,11.63
2022-11-20T16:21:32.534Z,8.00
2022-11-20T16:24:02.368Z,9.80
2022-11-20T16:26:31.723Z,10.68
2022-11-20T16:29:00.639Z,10.40
2022-11-20T16:31:27.639Z,10.80
2022-11-20T16:33:59.506Z,8.90
2022-11-20T16:36:28.809Z,11.82
2022-11-20T16:39:00.665Z,10.95
2022-11-20T16:41:29.278Z,10.52
2022-11-20T16:43:58.689Z,10.95
2022-11-20T16:46:32.626Z,11.23
2022-11-20T16:49:00.708Z,10.50
2022-11-20T16:51:29.254Z,11.93
2022-11-20T16:53:58.203Z,11.85
2022-11-20T16:56:26.890Z,11.43
2022-11-20T16:58:56.340Z,11.85
2022-11-20T17:01:24.921Z,11.65
2022-11-20T17:04:04.482Z,9.48
2022-11-20T17:06:40.518Z,13.00
2022-11-20T17:09:09.690Z,10.73
2022-11-20T17:11:37.169Z,10.18
2022-11-20T17:14:04.174Z,12.55
2022-11-20T17:16:35.557Z,10.88
2022-11-20T17:19:03.923Z,11.55
2022-11-20T17:24:01.972Z,10.40
2022-11-20T17:26:28.920Z,14.80
2022-11-20T17:29:01.164Z,13.27
2022-11-20T17:31:29.579Z,9.55
2022-11-20T17:36:26.909Z,14.07
2022-11-20T17:38:54.509Z,11.43
2022-11-20T17:41:23.737Z,10.43
2022-11-20T17:43:55.240Z,7.50
2022-11-20T17:46:31.463Z,14.32
2022-11-20T17:48:58.807Z,12.82
2022-11-20T17:51:28.328Z,16.73
2022-11-20T17:53:58.501Z,61.65
2022-11-20T17:56:44.036Z,19.05
2022-11-20T17:59:13.392Z,13.75
2022-11-20T18:01:43.094Z,15.13
2022-11-20T18:04:12.199Z,16.00
2022-11-20T18:06:41.542Z,13.52
2022-11-20T18:09:09.787Z,12.07
2022-11-20T18:11:39.527Z,10.82
2022-11-20T18:14:26.496Z,11.63
2022-11-20T18:16:58.344Z,12.30
2022-11-20T18:19:32.744Z,10.10
2022-11-20T18:22:01.970Z,11.05
2022-11-20T18:24:28.883Z,10.95
2022-11-20T18:26:55.561Z,11.85
2022-11-20T18:29:22.991Z,14.48
2022-11-20T18:31:50.133Z,11.83
2022-11-20T18:34:17.406Z,12.52
2022-11-20T18:36:45.424Z,13.00
2022-11-20T18:39:16.800Z,15.15
2022-11-20T18:42:03.435Z,12.95
2022-11-20T18:44:50.248Z,12.82
2022-11-20T18:47:25.762Z,12.02
2022-11-20T18:49:54.530Z,10.60
2022-11-20T18:52:42.409Z,9.70
2022-11-20T18:55:10.148Z,10.88
2022-11-20T18:57:37.115Z,12.80
2022-11-20T19:00:08.928Z,10.88
2022-11-20T19:02:40.971Z,10.20
2022-11-20T19:05:11.267Z,11.38
2022-11-20T19:07:38.616Z,11.38
2022-11-20T19:10:08.307Z,12.13
2022-11-20T19:12:35.195Z,11.45
2022-11-20T19:15:04.048Z,12.45
2022-11-20T19:17:30.892Z,11.18
2022-11-20T19:19:57.906Z,10.88
2022-11-20T19:22:24.554Z,12.13
2022-11-20T19:24:52.892Z,12.40
2022-11-20T19:27:19.953Z,14.15
2022-11-20T19:29:47.515Z,15.27
2022-11-20T19:32:16.757Z,16.90
2022-11-20T19:34:44.023Z,14.07
2022-11-20T19:37:11.022Z,12.95
2022-11-20T19:39:37.966Z,13.43
2022-11-20T19:42:07.666Z,12.32
2022-11-20T19:44:34.808Z,14.05
2022-11-20T19:47:04.359Z,13.27
2022-11-20T19:49:31.753Z,14.10
2022-11-20T19:51:58.952Z,13.65
2022-11-20T19:54:27.116Z,13.02
2022-11-20T19:56:54.028Z,11.85
2022-11-20T19:59:20.948Z,10.15
2022-11-20T20:01:50.124Z,11.40
2022-11-20T20:04:16.855Z,10.80
2022-11-20T20:06:44.195Z,10.38
2022-11-20T20:09:13.416Z,10.10
2022-11-20T20:11:40.443Z,11.75
2022-11-20T20:14:13.689Z,28.77
2022-11-20T20:16:41.390Z,32.03
2022-11-20T20:19:08.107Z,16.90
2022-11-20T20:21:35.745Z,15.25
2022-11-20T20:24:03.215Z,12.95
2022-11-20T20:26:31.915Z,12.40
2022-11-20T20:28:59.341Z,9.95
2022-11-20T20:31:28.286Z,12.13
2022-11-20T20:33:56.687Z,11.05
2022-11-20T20:36:28.827Z,10.95
2022-11-20T20:42:37.377Z,10.95
2022-11-20T20:45:10.746Z,11.68
2022-11-20T20:47:51.656Z,12.60
2022-11-20T20:50:20.821Z,13.52
2022-11-20T20:52:47.806Z,12.90
2022-11-20T20:55:14.997Z,14.30
2022-11-20T20:57:42.843Z,12.93
2022-11-20T21:00:10.618Z,13.48
2022-11-20T21:02:37.354Z,14.30
2022-11-20T21:05:04.681Z,15.23
2022-11-20T21:07:31.377Z,13.55
2022-11-20T21:09:58.067Z,13.25
2022-11-20T21:12:24.690Z,12.15
2022-11-20T21:14:51.364Z,14.63
2022-11-20T21:17:18.606Z,13.55
2022-11-20T21:19:47.461Z,14.02
2022-11-20T21:22:15.039Z,14.27
2022-11-20T21:24:41.622Z,14.23
2022-11-20T21:27:08.823Z,14.60
2022-11-20T21:29:36.308Z,15.07
2022-11-20T21:32:03.707Z,16.23
2022-11-20T21:34:31.907Z,15.27
2022-11-20T21:36:59.070Z,14.40
2022-11-20T21:39:46.216Z,12.93
2022-11-20T21:42:14.850Z,15.27
2022-11-20T21:44:41.695Z,13.88
2022-11-20T21:47:08.953Z,13.65
2022-11-20T21:49:35.517Z,14.68
2022-11-20T21:52:02.867Z,14.43
2022-11-20T21:54:30.006Z,14.77
2022-11-20T21:56:57.553Z,14.95
2022-11-20T21:59:24.648Z,15.40
2022-11-20T22:01:51.795Z,14.02
2022-11-20T22:04:18.792Z,14.40
2022-11-20T22:06:48.773Z,14.00
2022-11-20T22:09:16.174Z,15.48
2022-11-20T22:11:42.824Z,18.38
2022-11-20T22:14:24.025Z,16.50
2022-11-20T22:16:53.007Z,14.43
2022-11-20T22:21:56.254Z,12.52
2022-11-20T22:24:26.494Z,13.25
2022-11-20T22:26:54.040Z,12.85
2022-11-20T22:29:22.816Z,13.10
2022-11-20T22:31:53.436Z,13.30
2022-11-20T22:34:20.594Z,13.27
2022-11-20T22:36:47.579Z,12.68
2022-11-20T22:39:14.609Z,12.88
2022-11-20T22:41:43.680Z,12.90
2022-11-20T22:44:16.409Z,13.40
2022-11-20T22:46:44.298Z,14.85
2022-11-20T22:49:11.340Z,13.80
2022-11-20T22:51:41.098Z,13.75
2022-11-20T22:54:10.182Z,13.52
2022-11-20T22:56:37.078Z,14.10
2022-11-20T22:59:04.030Z,14.75
2022-11-20T23:01:34.116Z,13.93
2022-11-20T23:04:07.051Z,15.57
2022-11-20T23:06:36.874Z,15.13
2022-11-20T23:09:07.737Z,13.82
2022-11-20T23:11:35.303Z,14.68
2022-11-20T23:14:07.691Z,13.23
2022-11-20T23:16:36.825Z,15.07
2022-11-20T23:19:08.673Z,12.40
2022-11-20T23:21:37.801Z,13.38
2022-11-20T23:24:07.100Z,12.23
2022-11-20T23:26:36.725Z,11.52
2022-11-20T23:29:06.165Z,13.52
2022-11-20T23:31:35.291Z,13.55
2022-11-20T23:34:02.186Z,12.63
2022-11-20T23:36:31.780Z,13.23
2022-11-20T23:38:58.693Z,11.98
2022-11-20T23:41:25.878Z,13.68
2022-11-20T23:43:53.687Z,11.50
2022-11-20T23:46:23.522Z,13.55
2022-11-20T23:48:50.128Z,12.35
2022-11-20T23:51:17.718Z,13.88
2022-11-20T23:53:47.217Z,13.00
2022-11-20T23:56:16.909Z,14.73
2022-11-20T23:58:43.473Z,12.38
